sensor_id;sensor_type;location;lat;lon;timestamp;P1;durP1;ratioP1;P2;durP2;ratioP2
22644;SDS011;11489;50.834;6.752;2023-04-15T00:00:40;10.30;;;3.40;;
22644;SDS011;11489;50.834;6.752;2023-04-15T00:03:06;7.13;;;3.10;;
22644;SDS011;11489;50.834;6.752;2023-04-15T00:05:32;7.43;;;3.70;;
22644;SDS011;11489;50.834;6.752;2023-04-15T00:07:58;7.33;;;3.53;;
22644;SDS011;11489;50.834;6.752;2023-04-15T00:10:25;7.97;;;3.73;;
22644;SDS011;11489;50.834;6.752;2023-04-15T00:12:51;10.07;;;3.83;;
22644;SDS011;11489;50.834;6.752;2023-04-15T00:15:17;8.13;;;3.70;;
22644;SDS011;11489;50.834;6.752;2023-04-15T00:17:43;5.60;;;3.30;;
22644;SDS011;11489;50.834;6.752;2023-04-15T00:20:10;8.43;;;3.77;;
22644;SDS011;11489;50.834;6.752;2023-04-15T00:22:35;6.67;;;3.33;;
22644;SDS011;11489;50.834;6.752;2023-04-15T00:25:01;7.57;;;3.17;;
22644;SDS011;11489;50.834;6.752;2023-04-15T00:27:27;6.03;;;3.23;;
22644;SDS011;11489;50.834;6.752;2023-04-15T00:29:53;6.37;;;3.50;;
22644;SDS011;11489;50.834;6.752;2023-04-15T00:32:20;6.00;;;3.53;;
22644;SDS011;11489;50.834;6.752;2023-04-15T00:34:46;8.50;;;3.70;;
22644;SDS011;11489;50.834;6.752;2023-04-15T00:37:11;12.17;;;3.70;;
22644;SDS011;11489;50.834;6.752;2023-04-15T00:39:37;7.10;;;3.77;;
22644;SDS011;11489;50.834;6.752;2023-04-15T00:42:03;9.33;;;3.80;;
22644;SDS011;11489;50.834;6.752;2023-04-15T00:44:29;7.27;;;3.67;;
22644;SDS011;11489;50.834;6.752;2023-04-15T00:46:56;6.27;;;3.23;;
22644;SDS011;11489;50.834;6.752;2023-04-15T00:49:22;11.10;;;3.37;;
22644;SDS011;11489;50.834;6.752;2023-04-15T00:51:48;7.00;;;3.40;;
22644;SDS011;11489;50.834;6.752;2023-04-15T00:54:14;7.63;;;3.50;;
22644;SDS011;11489;50.834;6.752;2023-04-15T00:56:40;6.17;;;3.57;;
22644;SDS011;11489;50.834;6.752;2023-04-15T00:59:06;8.40;;;3.40;;
22644;SDS011;11489;50.834;6.752;2023-04-15T01:01:33;6.27;;;3.20;;
22644;SDS011;11489;50.834;6.752;2023-04-15T01:04:00;5.83;;;3.37;;
22644;SDS011;11489;50.834;6.752;2023-04-15T01:06:27;8.17;;;3.23;;
22644;SDS011;11489;50.834;6.752;2023-04-15T01:08:54;5.10;;;3.20;;
22644;SDS011;11489;50.834;6.752;2023-04-15T01:11:20;9.20;;;3.27;;
22644;SDS011;11489;50.834;6.752;2023-04-15T01:13:48;6.30;;;3.20;;
22644;SDS011;11489;50.834;6.752;2023-04-15T01:16:15;7.13;;;3.40;;
22644;SDS011;11489;50.834;6.752;2023-04-15T01:18:41;6.33;;;3.30;;
22644;SDS011;11489;50.834;6.752;2023-04-15T01:21:07;6.23;;;3.60;;
22644;SDS011;11489;50.834;6.752;2023-04-15T01:23:34;7.37;;;3.13;;
22644;SDS011;11489;50.834;6.752;2023-04-15T01:26:04;7.87;;;3.20;;
22644;SDS011;11489;50.834;6.752;2023-04-15T01:28:33;8.10;;;3.53;;
22644;SDS011;11489;50.834;6.752;2023-04-15T01:31:06;7.07;;;3.47;;
22644;SDS011;11489;50.834;6.752;2023-04-15T01:33:41;9.17;;;3.47;;
22644;SDS011;11489;50.834;6.752;2023-04-15T01:36:07;6.30;;;3.33;;
22644;SDS011;11489;50.834;6.752;2023-04-15T01:38:37;7.27;;;3.20;;
22644;SDS011;11489;50.834;6.752;2023-04-15T01:41:02;5.53;;;3.27;;
22644;SDS011;11489;50.834;6.752;2023-04-15T01:43:28;5.60;;;3.10;;
22644;SDS011;11489;50.834;6.752;2023-04-15T01:45:54;7.57;;;2.90;;
22644;SDS011;11489;50.834;6.752;2023-04-15T01:48:20;5.77;;;3.67;;
22644;SDS011;11489;50.834;6.752;2023-04-15T01:50:47;6.10;;;3.30;;
22644;SDS011;11489;50.834;6.752;2023-04-15T01:53:13;5.40;;;3.23;;
22644;SDS011;11489;50.834;6.752;2023-04-15T01:55:39;7.17;;;3.37;;
22644;SDS011;11489;50.834;6.752;2023-04-15T01:58:05;7.80;;;3.73;;
22644;SDS011;11489;50.834;6.752;2023-04-15T02:00:30;6.73;;;3.30;;
22644;SDS011;11489;50.834;6.752;2023-04-15T02:02:56;8.20;;;3.47;;
22644;SDS011;11489;50.834;6.752;2023-04-15T02:05:23;5.53;;;3.10;;
22644;SDS011;11489;50.834;6.752;2023-04-15T02:07:50;5.63;;;3.30;;
22644;SDS011;11489;50.834;6.752;2023-04-15T02:10:15;5.80;;;3.10;;
22644;SDS011;11489;50.834;6.752;2023-04-15T02:12:41;7.60;;;3.13;;
22644;SDS011;11489;50.834;6.752;2023-04-15T02:15:07;6.30;;;3.67;;
22644;SDS011;11489;50.834;6.752;2023-04-15T02:17:34;5.57;;;3.37;;
22644;SDS011;11489;50.834;6.752;2023-04-15T02:20:02;6.07;;;3.13;;
22644;SDS011;11489;50.834;6.752;2023-04-15T02:22:30;5.53;;;3.03;;
22644;SDS011;11489;50.834;6.752;2023-04-15T02:24:56;5.33;;;3.07;;
22644;SDS011;11489;50.834;6.752;2023-04-15T02:27:21;5.43;;;3.00;;
22644;SDS011;11489;50.834;6.752;2023-04-15T02:29:47;5.30;;;3.27;;
22644;SDS011;11489;50.834;6.752;2023-04-15T02:32:15;7.07;;;2.67;;
22644;SDS011;11489;50.834;6.752;2023-04-15T02:34:41;7.03;;;2.93;;
22644;SDS011;11489;50.834;6.752;2023-04-15T02:37:07;4.70;;;3.07;;
22644;SDS011;11489;50.834;6.752;2023-04-15T02:39:34;7.30;;;3.50;;
22644;SDS011;11489;50.834;6.752;2023-04-15T02:41:59;4.43;;;2.87;;
22644;SDS011;11489;50.834;6.752;2023-04-15T02:44:25;7.93;;;3.23;;
22644;SDS011;11489;50.834;6.752;2023-04-15T02:46:51;6.27;;;3.27;;
22644;SDS011;11489;50.834;6.752;2023-04-15T02:49:21;5.10;;;2.87;;
22644;SDS011;11489;50.834;6.752;2023-04-15T02:51:47;7.63;;;3.50;;
22644;SDS011;11489;50.834;6.752;2023-04-15T02:54:16;7.10;;;3.20;;
22644;SDS011;11489;50.834;6.752;2023-04-15T02:56:43;5.80;;;3.20;;
22644;SDS011;11489;50.834;6.752;2023-04-15T02:59:09;5.67;;;3.13;;
22644;SDS011;11489;50.834;6.752;2023-04-15T03:01:34;6.60;;;3.57;;
22644;SDS011;11489;50.834;6.752;2023-04-15T03:04:00;5.70;;;3.27;;
22644;SDS011;11489;50.834;6.752;2023-04-15T03:06:26;5.03;;;3.03;;
22644;SDS011;11489;50.834;6.752;2023-04-15T03:08:51;4.60;;;2.80;;
22644;SDS011;11489;50.834;6.752;2023-04-15T03:11:18;4.43;;;2.87;;
22644;SDS011;11489;50.834;6.752;2023-04-15T03:13:44;6.67;;;3.00;;
22644;SDS011;11489;50.834;6.752;2023-04-15T03:16:10;6.27;;;3.00;;
22644;SDS011;11489;50.834;6.752;2023-04-15T03:18:35;8.20;;;3.03;;
22644;SDS011;11489;50.834;6.752;2023-04-15T03:21:01;6.67;;;3.27;;
22644;SDS011;11489;50.834;6.752;2023-04-15T03:23:27;4.53;;;2.80;;
22644;SDS011;11489;50.834;6.752;2023-04-15T03:25:54;6.77;;;3.23;;
22644;SDS011;11489;50.834;6.752;2023-04-15T03:28:22;5.93;;;2.93;;
22644;SDS011;11489;50.834;6.752;2023-04-15T03:30:48;6.13;;;2.90;;
22644;SDS011;11489;50.834;6.752;2023-04-15T03:33:13;5.97;;;3.33;;
22644;SDS011;11489;50.834;6.752;2023-04-15T03:35:39;7.33;;;2.90;;
22644;SDS011;11489;50.834;6.752;2023-04-15T03:38:05;5.77;;;3.20;;
22644;SDS011;11489;50.834;6.752;2023-04-15T03:40:31;4.57;;;3.03;;
22644;SDS011;11489;50.834;6.752;2023-04-15T03:42:56;4.33;;;2.60;;
22644;SDS011;11489;50.834;6.752;2023-04-15T03:45:22;5.73;;;3.30;;
22644;SDS011;11489;50.834;6.752;2023-04-15T03:47:48;4.30;;;2.90;;
22644;SDS011;11489;50.834;6.752;2023-04-15T03:50:14;4.93;;;2.80;;
22644;SDS011;11489;50.834;6.752;2023-04-15T03:52:39;7.30;;;3.17;;
22644;SDS011;11489;50.834;6.752;2023-04-15T03:55:05;8.13;;;2.80;;
22644;SDS011;11489;50.834;6.752;2023-04-15T03:57:32;6.67;;;3.00;;
22644;SDS011;11489;50.834;6.752;2023-04-15T04:00:03;5.67;;;2.57;;
22644;SDS011;11489;50.834;6.752;2023-04-15T04:02:30;4.13;;;2.50;;
22644;SDS011;11489;50.834;6.752;2023-04-15T04:04:55;4.57;;;2.73;;
22644;SDS011;11489;50.834;6.752;2023-04-15T04:07:22;4.27;;;2.40;;
22644;SDS011;11489;50.834;6.752;2023-04-15T04:09:48;6.73;;;3.00;;
22644;SDS011;11489;50.834;6.752;2023-04-15T04:12:14;5.33;;;2.83;;
22644;SDS011;11489;50.834;6.752;2023-04-15T04:14:41;6.43;;;2.70;;
22644;SDS011;11489;50.834;6.752;2023-04-15T04:17:06;7.57;;;2.93;;
22644;SDS011;11489;50.834;6.752;2023-04-15T04:19:32;5.87;;;2.60;;
22644;SDS011;11489;50.834;6.752;2023-04-15T04:21:58;4.77;;;2.60;;
22644;SDS011;11489;50.834;6.752;2023-04-15T04:24:24;3.80;;;2.57;;
22644;SDS011;11489;50.834;6.752;2023-04-15T04:26:50;4.70;;;2.80;;
22644;SDS011;11489;50.834;6.752;2023-04-15T04:29:16;7.13;;;2.53;;
22644;SDS011;11489;50.834;6.752;2023-04-15T04:31:41;4.60;;;2.40;;
22644;SDS011;11489;50.834;6.752;2023-04-15T04:34:07;6.07;;;2.53;;
22644;SDS011;11489;50.834;6.752;2023-04-15T04:36:33;10.07;;;2.60;;
22644;SDS011;11489;50.834;6.752;2023-04-15T04:38:58;4.77;;;2.73;;
22644;SDS011;11489;50.834;6.752;2023-04-15T04:41:25;5.00;;;2.80;;
22644;SDS011;11489;50.834;6.752;2023-04-15T04:43:51;5.03;;;2.90;;
22644;SDS011;11489;50.834;6.752;2023-04-15T04:46:17;5.93;;;2.53;;
22644;SDS011;11489;50.834;6.752;2023-04-15T04:48:42;4.53;;;2.67;;
22644;SDS011;11489;50.834;6.752;2023-04-15T04:51:08;4.27;;;2.50;;
22644;SDS011;11489;50.834;6.752;2023-04-15T04:53:34;7.13;;;2.70;;
22644;SDS011;11489;50.834;6.752;2023-04-15T04:56:02;7.80;;;2.60;;
22644;SDS011;11489;50.834;6.752;2023-04-15T04:58:27;6.97;;;2.80;;
22644;SDS011;11489;50.834;6.752;2023-04-15T05:00:53;3.83;;;2.57;;
22644;SDS011;11489;50.834;6.752;2023-04-15T05:03:20;4.70;;;2.60;;
22644;SDS011;11489;50.834;6.752;2023-04-15T05:05:46;6.50;;;2.80;;
22644;SDS011;11489;50.834;6.752;2023-04-15T05:08:13;6.93;;;2.70;;
22644;SDS011;11489;50.834;6.752;2023-04-15T05:10:39;6.40;;;2.90;;
22644;SDS011;11489;50.834;6.752;2023-04-15T05:13:05;6.80;;;2.70;;
22644;SDS011;11489;50.834;6.752;2023-04-15T05:15:31;7.67;;;3.00;;
22644;SDS011;11489;50.834;6.752;2023-04-15T05:17:57;7.43;;;3.03;;
22644;SDS011;11489;50.834;6.752;2023-04-15T05:20:23;5.47;;;2.83;;
22644;SDS011;11489;50.834;6.752;2023-04-15T05:22:48;6.33;;;2.63;;
22644;SDS011;11489;50.834;6.752;2023-04-15T05:25:14;6.20;;;2.90;;
22644;SDS011;11489;50.834;6.752;2023-04-15T05:27:40;5.03;;;2.50;;
22644;SDS011;11489;50.834;6.752;2023-04-15T05:30:06;5.70;;;2.77;;
22644;SDS011;11489;50.834;6.752;2023-04-15T05:32:33;6.40;;;2.77;;
22644;SDS011;11489;50.834;6.752;2023-04-15T05:34:58;7.27;;;3.00;;
22644;SDS011;11489;50.834;6.752;2023-04-15T05:37:24;6.73;;;2.90;;
22644;SDS011;11489;50.834;6.752;2023-04-15T05:39:50;6.73;;;4.00;;
22644;SDS011;11489;50.834;6.752;2023-04-15T05:42:16;7.83;;;3.43;;
22644;SDS011;11489;50.834;6.752;2023-04-15T05:44:41;7.20;;;3.90;;
22644;SDS011;11489;50.834;6.752;2023-04-15T05:47:07;10.03;;;3.57;;
22644;SDS011;11489;50.834;6.752;2023-04-15T05:49:34;7.90;;;3.50;;
22644;SDS011;11489;50.834;6.752;2023-04-15T05:52:00;5.87;;;3.50;;
22644;SDS011;11489;50.834;6.752;2023-04-15T05:54:25;7.00;;;3.70;;
22644;SDS011;11489;50.834;6.752;2023-04-15T05:56:52;9.40;;;3.20;;
22644;SDS011;11489;50.834;6.752;2023-04-15T05:59:18;10.13;;;3.70;;
22644;SDS011;11489;50.834;6.752;2023-04-15T06:01:44;6.30;;;3.33;;
22644;SDS011;11489;50.834;6.752;2023-04-15T06:04:11;6.60;;;3.17;;
22644;SDS011;11489;50.834;6.752;2023-04-15T06:06:36;8.23;;;3.67;;
22644;SDS011;11489;50.834;6.752;2023-04-15T06:09:03;6.97;;;3.23;;
22644;SDS011;11489;50.834;6.752;2023-04-15T06:11:29;8.03;;;3.73;;
22644;SDS011;11489;50.834;6.752;2023-04-15T06:13:54;9.33;;;3.77;;
22644;SDS011;11489;50.834;6.752;2023-04-15T06:16:20;6.73;;;3.80;;
22644;SDS011;11489;50.834;6.752;2023-04-15T06:18:47;8.70;;;4.20;;
22644;SDS011;11489;50.834;6.752;2023-04-15T06:21:13;6.93;;;4.10;;
22644;SDS011;11489;50.834;6.752;2023-04-15T06:23:39;8.00;;;3.40;;
22644;SDS011;11489;50.834;6.752;2023-04-15T06:26:05;7.27;;;3.70;;
22644;SDS011;11489;50.834;6.752;2023-04-15T06:28:31;7.10;;;3.90;;
22644;SDS011;11489;50.834;6.752;2023-04-15T06:30:57;7.63;;;3.63;;
22644;SDS011;11489;50.834;6.752;2023-04-15T06:33:23;6.85;;;3.85;;
22644;SDS011;11489;50.834;6.752;2023-04-15T06:35:48;6.85;;;3.67;;
22644;SDS011;11489;50.834;6.752;2023-04-15T06:38:15;7.97;;;4.18;;
22644;SDS011;11489;50.834;6.752;2023-04-15T06:40:40;7.57;;;3.97;;
22644;SDS011;11489;50.834;6.752;2023-04-15T06:43:06;8.60;;;4.13;;
22644;SDS011;11489;50.834;6.752;2023-04-15T06:45:33;8.05;;;4.70;;
22644;SDS011;11489;50.834;6.752;2023-04-15T06:47:59;6.95;;;4.30;;
22644;SDS011;11489;50.834;6.752;2023-04-15T06:50:25;11.73;;;4.68;;
22644;SDS011;11489;50.834;6.752;2023-04-15T06:52:52;8.85;;;4.78;;
22644;SDS011;11489;50.834;6.752;2023-04-15T06:55:21;10.35;;;4.68;;
22644;SDS011;11489;50.834;6.752;2023-04-15T06:57:47;9.02;;;5.07;;
22644;SDS011;11489;50.834;6.752;2023-04-15T07:00:12;6.97;;;4.47;;
22644;SDS011;11489;50.834;6.752;2023-04-15T07:02:38;8.88;;;4.82;;
22644;SDS011;11489;50.834;6.752;2023-04-15T07:05:04;8.38;;;4.68;;
22644;SDS011;11489;50.834;6.752;2023-04-15T07:07:31;8.65;;;5.20;;
22644;SDS011;11489;50.834;6.752;2023-04-15T07:09:56;9.40;;;4.60;;
22644;SDS011;11489;50.834;6.752;2023-04-15T07:12:22;8.57;;;5.05;;
22644;SDS011;11489;50.834;6.752;2023-04-15T07:14:48;39.20;;;14.35;;
22644;SDS011;11489;50.834;6.752;2023-04-15T07:17:14;21.75;;;9.02;;
22644;SDS011;11489;50.834;6.752;2023-04-15T07:19:39;18.02;;;8.13;;
22644;SDS011;11489;50.834;6.752;2023-04-15T07:22:05;13.63;;;7.18;;
22644;SDS011;11489;50.834;6.752;2023-04-15T07:24:31;12.85;;;5.78;;
22644;SDS011;11489;50.834;6.752;2023-04-15T07:26:57;9.25;;;5.32;;
22644;SDS011;11489;50.834;6.752;2023-04-15T07:29:23;12.13;;;5.22;;
22644;SDS011;11489;50.834;6.752;2023-04-15T07:31:50;13.05;;;5.15;;
22644;SDS011;11489;50.834;6.752;2023-04-15T07:34:16;11.50;;;4.78;;
22644;SDS011;11489;50.834;6.752;2023-04-15T07:36:43;9.38;;;4.93;;
22644;SDS011;11489;50.834;6.752;2023-04-15T07:39:10;9.80;;;4.80;;
22644;SDS011;11489;50.834;6.752;2023-04-15T07:41:36;10.93;;;4.97;;
22644;SDS011;11489;50.834;6.752;2023-04-15T07:44:02;7.95;;;5.07;;
22644;SDS011;11489;50.834;6.752;2023-04-15T07:46:28;7.63;;;4.35;;
22644;SDS011;11489;50.834;6.752;2023-04-15T07:48:53;7.88;;;4.82;;
22644;SDS011;11489;50.834;6.752;2023-04-15T07:51:19;9.73;;;4.80;;
22644;SDS011;11489;50.834;6.752;2023-04-15T07:53:48;7.78;;;4.53;;
22644;SDS011;11489;50.834;6.752;2023-04-15T07:56:14;8.07;;;4.60;;
22644;SDS011;11489;50.834;6.752;2023-04-15T07:58:40;8.45;;;4.95;;
22644;SDS011;11489;50.834;6.752;2023-04-15T08:01:06;7.20;;;4.57;;
22644;SDS011;11489;50.834;6.752;2023-04-15T08:03:32;9.43;;;5.57;;
22644;SDS011;11489;50.834;6.752;2023-04-15T08:05:58;9.80;;;5.57;;
22644;SDS011;11489;50.834;6.752;2023-04-15T08:08:24;9.73;;;5.20;;
22644;SDS011;11489;50.834;6.752;2023-04-15T08:10:50;10.40;;;5.15;;
22644;SDS011;11489;50.834;6.752;2023-04-15T08:13:16;7.75;;;4.82;;
22644;SDS011;11489;50.834;6.752;2023-04-15T08:15:42;10.15;;;5.35;;
22644;SDS011;11489;50.834;6.752;2023-04-15T08:18:08;7.25;;;4.70;;
22644;SDS011;11489;50.834;6.752;2023-04-15T08:20:34;8.50;;;4.90;;
22644;SDS011;11489;50.834;6.752;2023-04-15T08:22:59;7.70;;;4.97;;
22644;SDS011;11489;50.834;6.752;2023-04-15T08:25:25;7.28;;;5.13;;
22644;SDS011;11489;50.834;6.752;2023-04-15T08:27:53;9.18;;;5.25;;
22644;SDS011;11489;50.834;6.752;2023-04-15T08:30:19;8.20;;;5.05;;
22644;SDS011;11489;50.834;6.752;2023-04-15T08:32:45;9.13;;;5.32;;
22644;SDS011;11489;50.834;6.752;2023-04-15T08:35:11;10.85;;;5.75;;
22644;SDS011;11489;50.834;6.752;2023-04-15T08:37:37;11.15;;;6.15;;
22644;SDS011;11489;50.834;6.752;2023-04-15T08:40:03;11.30;;;6.60;;
22644;SDS011;11489;50.834;6.752;2023-04-15T08:42:30;11.90;;;7.28;;
22644;SDS011;11489;50.834;6.752;2023-04-15T08:45:00;12.40;;;6.95;;
22644;SDS011;11489;50.834;6.752;2023-04-15T08:47:29;10.57;;;6.25;;
22644;SDS011;11489;50.834;6.752;2023-04-15T08:49:58;11.57;;;6.50;;
22644;SDS011;11489;50.834;6.752;2023-04-15T08:52:25;10.40;;;6.20;;
22644;SDS011;11489;50.834;6.752;2023-04-15T08:54:51;8.80;;;6.72;;
22644;SDS011;11489;50.834;6.752;2023-04-15T08:57:23;11.02;;;6.70;;
22644;SDS011;11489;50.834;6.752;2023-04-15T08:59:54;9.68;;;6.13;;
22644;SDS011;11489;50.834;6.752;2023-04-15T09:02:21;12.02;;;6.50;;
22644;SDS011;11489;50.834;6.752;2023-04-15T09:04:48;10.23;;;6.50;;
22644;SDS011;11489;50.834;6.752;2023-04-15T09:07:14;11.35;;;6.05;;
22644;SDS011;11489;50.834;6.752;2023-04-15T09:09:39;10.90;;;5.90;;
22644;SDS011;11489;50.834;6.752;2023-04-15T09:12:06;9.48;;;6.03;;
22644;SDS011;11489;50.834;6.752;2023-04-15T09:14:32;11.20;;;5.93;;
22644;SDS011;11489;50.834;6.752;2023-04-15T09:16:59;7.80;;;4.97;;
22644;SDS011;11489;50.834;6.752;2023-04-15T09:19:26;5.75;;;3.85;;
22644;SDS011;11489;50.834;6.752;2023-04-15T09:21:53;5.95;;;3.80;;
22644;SDS011;11489;50.834;6.752;2023-04-15T09:24:23;6.20;;;3.80;;
22644;SDS011;11489;50.834;6.752;2023-04-15T09:26:52;5.68;;;3.78;;
22644;SDS011;11489;50.834;6.752;2023-04-15T09:29:23;5.53;;;3.70;;
22644;SDS011;11489;50.834;6.752;2023-04-15T09:31:49;6.00;;;3.72;;
22644;SDS011;11489;50.834;6.752;2023-04-15T09:34:15;4.70;;;3.03;;
22644;SDS011;11489;50.834;6.752;2023-04-15T09:39:10;6.57;;;2.78;;
22644;SDS011;11489;50.834;6.752;2023-04-15T09:41:36;5.95;;;2.90;;
22644;SDS011;11489;50.834;6.752;2023-04-15T09:44:01;4.55;;;2.50;;
22644;SDS011;11489;50.834;6.752;2023-04-15T09:46:41;5.03;;;2.45;;
22644;SDS011;11489;50.834;6.752;2023-04-15T09:49:08;4.75;;;2.90;;
22644;SDS011;11489;50.834;6.752;2023-04-15T09:51:35;4.70;;;2.97;;
22644;SDS011;11489;50.834;6.752;2023-04-15T09:54:00;3.75;;;2.60;;
22644;SDS011;11489;50.834;6.752;2023-04-15T09:56:36;4.57;;;2.63;;
22644;SDS011;11489;50.834;6.752;2023-04-15T09:59:06;4.57;;;2.78;;
22644;SDS011;11489;50.834;6.752;2023-04-15T10:01:32;4.57;;;2.40;;
22644;SDS011;11489;50.834;6.752;2023-04-15T10:03:58;3.60;;;2.60;;
22644;SDS011;11489;50.834;6.752;2023-04-15T10:06:27;3.42;;;2.40;;
22644;SDS011;11489;50.834;6.752;2023-04-15T10:08:54;4.10;;;2.42;;
22644;SDS011;11489;50.834;6.752;2023-04-15T10:11:22;4.05;;;2.47;;
22644;SDS011;11489;50.834;6.752;2023-04-15T10:13:49;3.13;;;2.38;;
22644;SDS011;11489;50.834;6.752;2023-04-15T10:16:16;4.13;;;2.65;;
22644;SDS011;11489;50.834;6.752;2023-04-15T10:18:46;3.65;;;3.13;;
22644;SDS011;11489;50.834;6.752;2023-04-15T10:21:15;4.72;;;2.95;;
22644;SDS011;11489;50.834;6.752;2023-04-15T10:23:46;3.38;;;2.40;;
22644;SDS011;11489;50.834;6.752;2023-04-15T10:26:12;4.07;;;2.60;;
22644;SDS011;11489;50.834;6.752;2023-04-15T10:28:42;5.20;;;2.70;;
22644;SDS011;11489;50.834;6.752;2023-04-15T10:31:09;5.72;;;3.28;;
22644;SDS011;11489;50.834;6.752;2023-04-15T10:33:39;5.93;;;3.33;;
22644;SDS011;11489;50.834;6.752;2023-04-15T10:36:06;4.80;;;3.40;;
22644;SDS011;11489;50.834;6.752;2023-04-15T10:41:19;7.05;;;4.35;;
22644;SDS011;11489;50.834;6.752;2023-04-15T10:43:49;16.98;;;7.25;;
22644;SDS011;11489;50.834;6.752;2023-04-15T10:49:07;7.15;;;4.60;;
22644;SDS011;11489;50.834;6.752;2023-04-15T10:51:52;5.40;;;4.30;;
22644;SDS011;11489;50.834;6.752;2023-04-15T10:56:51;4.63;;;3.47;;
22644;SDS011;11489;50.834;6.752;2023-04-15T10:59:38;4.70;;;3.67;;
22644;SDS011;11489;50.834;6.752;2023-04-15T11:05:12;4.05;;;2.55;;
22644;SDS011;11489;50.834;6.752;2023-04-15T11:12:42;3.88;;;2.92;;
22644;SDS011;11489;50.834;6.752;2023-04-15T11:17:54;4.50;;;3.08;;
22644;SDS011;11489;50.834;6.752;2023-04-15T11:20:32;4.32;;;3.45;;
22644;SDS011;11489;50.834;6.752;2023-04-15T11:23:00;6.63;;;4.25;;
22644;SDS011;11489;50.834;6.752;2023-04-15T11:27:53;5.15;;;3.80;;
22644;SDS011;11489;50.834;6.752;2023-04-15T11:30:25;4.90;;;4.22;;
22644;SDS011;11489;50.834;6.752;2023-04-15T11:32:53;5.13;;;3.85;;
22644;SDS011;11489;50.834;6.752;2023-04-15T11:35:21;4.57;;;3.60;;
22644;SDS011;11489;50.834;6.752;2023-04-15T11:37:47;7.25;;;4.30;;
22644;SDS011;11489;50.834;6.752;2023-04-15T11:40:14;5.72;;;3.90;;
22644;SDS011;11489;50.834;6.752;2023-04-15T11:42:42;5.97;;;4.07;;
22644;SDS011;11489;50.834;6.752;2023-04-15T11:45:17;8.95;;;4.45;;
22644;SDS011;11489;50.834;6.752;2023-04-15T11:47:43;5.28;;;3.85;;
22644;SDS011;11489;50.834;6.752;2023-04-15T11:50:27;4.57;;;4.07;;
22644;SDS011;11489;50.834;6.752;2023-04-15T11:52:56;4.22;;;3.42;;
22644;SDS011;11489;50.834;6.752;2023-04-15T11:55:23;4.63;;;3.53;;
22644;SDS011;11489;50.834;6.752;2023-04-15T11:57:50;3.83;;;3.25;;
22644;SDS011;11489;50.834;6.752;2023-04-15T12:00:35;4.43;;;3.60;;
22644;SDS011;11489;50.834;6.752;2023-04-15T12:06:08;3.72;;;3.33;;
22644;SDS011;11489;50.834;6.752;2023-04-15T12:13:55;4.38;;;3.90;;
22644;SDS011;11489;50.834;6.752;2023-04-15T12:16:33;4.70;;;3.75;;
22644;SDS011;11489;50.834;6.752;2023-04-15T12:19:13;4.65;;;4.07;;
22644;SDS011;11489;50.834;6.752;2023-04-15T12:21:46;4.95;;;4.45;;
22644;SDS011;11489;50.834;6.752;2023-04-15T12:24:13;7.63;;;4.30;;
22644;SDS011;11489;50.834;6.752;2023-04-15T12:26:46;5.93;;;4.88;;
22644;SDS011;11489;50.834;6.752;2023-04-15T12:29:14;5.38;;;4.60;;
22644;SDS011;11489;50.834;6.752;2023-04-15T12:31:51;6.43;;;5.75;;
22644;SDS011;11489;50.834;6.752;2023-04-15T12:34:28;7.20;;;6.30;;
22644;SDS011;11489;50.834;6.752;2023-04-15T12:36:56;8.25;;;6.40;;
22644;SDS011;11489;50.834;6.752;2023-04-15T12:39:23;8.50;;;7.40;;
22644;SDS011;11489;50.834;6.752;2023-04-15T12:41:50;10.73;;;9.63;;
22644;SDS011;11489;50.834;6.752;2023-04-15T12:44:16;9.50;;;8.50;;
22644;SDS011;11489;50.834;6.752;2023-04-15T12:46:42;11.07;;;9.18;;
22644;SDS011;11489;50.834;6.752;2023-04-15T12:49:09;10.40;;;8.60;;
22644;SDS011;11489;50.834;6.752;2023-04-15T12:51:35;10.95;;;9.02;;
22644;SDS011;11489;50.834;6.752;2023-04-15T12:54:00;11.10;;;9.93;;
22644;SDS011;11489;50.834;6.752;2023-04-15T12:56:26;12.20;;;10.90;;
22644;SDS011;11489;50.834;6.752;2023-04-15T12:58:52;14.30;;;12.02;;
22644;SDS011;11489;50.834;6.752;2023-04-15T13:01:17;14.60;;;11.68;;
22644;SDS011;11489;50.834;6.752;2023-04-15T13:03:43;12.90;;;11.40;;
22644;SDS011;11489;50.834;6.752;2023-04-15T13:06:09;13.75;;;11.57;;
22644;SDS011;11489;50.834;6.752;2023-04-15T13:08:35;12.88;;;10.73;;
22644;SDS011;11489;50.834;6.752;2023-04-15T13:11:01;11.10;;;9.90;;
22644;SDS011;11489;50.834;6.752;2023-04-15T13:13:27;14.02;;;11.32;;
22644;SDS011;11489;50.834;6.752;2023-04-15T13:15:53;12.77;;;10.05;;
22644;SDS011;11489;50.834;6.752;2023-04-15T13:18:18;11.75;;;9.52;;
22644;SDS011;11489;50.834;6.752;2023-04-15T13:20:44;10.10;;;8.27;;
22644;SDS011;11489;50.834;6.752;2023-04-15T13:23:10;11.57;;;8.57;;
22644;SDS011;11489;50.834;6.752;2023-04-15T13:25:36;9.40;;;7.53;;
22644;SDS011;11489;50.834;6.752;2023-04-15T13:28:02;9.02;;;7.05;;
22644;SDS011;11489;50.834;6.752;2023-04-15T13:30:27;9.35;;;7.28;;
22644;SDS011;11489;50.834;6.752;2023-04-15T13:32:53;9.75;;;7.65;;
22644;SDS011;11489;50.834;6.752;2023-04-15T13:35:19;9.65;;;7.35;;
22644;SDS011;11489;50.834;6.752;2023-04-15T13:37:45;11.00;;;7.07;;
22644;SDS011;11489;50.834;6.752;2023-04-15T13:40:11;8.75;;;6.80;;
22644;SDS011;11489;50.834;6.752;2023-04-15T13:42:37;9.30;;;7.07;;
22644;SDS011;11489;50.834;6.752;2023-04-15T13:45:03;8.73;;;6.63;;
22644;SDS011;11489;50.834;6.752;2023-04-15T13:47:29;9.45;;;5.90;;
22644;SDS011;11489;50.834;6.752;2023-04-15T13:49:54;6.90;;;5.32;;
22644;SDS011;11489;50.834;6.752;2023-04-15T13:52:21;7.82;;;5.30;;
22644;SDS011;11489;50.834;6.752;2023-04-15T13:54:47;5.18;;;4.47;;
22644;SDS011;11489;50.834;6.752;2023-04-15T13:57:16;6.38;;;5.07;;
22644;SDS011;11489;50.834;6.752;2023-04-15T13:59:42;7.68;;;5.28;;
22644;SDS011;11489;50.834;6.752;2023-04-15T14:02:08;6.28;;;5.20;;
22644;SDS011;11489;50.834;6.752;2023-04-15T14:04:34;7.35;;;5.00;;
22644;SDS011;11489;50.834;6.752;2023-04-15T14:06:59;7.30;;;5.45;;
22644;SDS011;11489;50.834;6.752;2023-04-15T14:09:25;6.38;;;5.10;;
22644;SDS011;11489;50.834;6.752;2023-04-15T14:11:51;7.03;;;5.22;;
22644;SDS011;11489;50.834;6.752;2023-04-15T14:14:17;5.80;;;4.63;;
22644;SDS011;11489;50.834;6.752;2023-04-15T14:16:43;5.28;;;4.18;;
22644;SDS011;11489;50.834;6.752;2023-04-15T14:19:08;7.22;;;4.20;;
22644;SDS011;11489;50.834;6.752;2023-04-15T14:21:34;4.93;;;3.67;;
22644;SDS011;11489;50.834;6.752;2023-04-15T14:24:00;4.72;;;3.70;;
22644;SDS011;11489;50.834;6.752;2023-04-15T14:26:25;9.05;;;4.30;;
22644;SDS011;11489;50.834;6.752;2023-04-15T14:28:51;5.68;;;4.80;;
22644;SDS011;11489;50.834;6.752;2023-04-15T14:31:17;5.63;;;4.60;;
22644;SDS011;11489;50.834;6.752;2023-04-15T14:33:43;5.22;;;4.22;;
22644;SDS011;11489;50.834;6.752;2023-04-15T14:36:09;5.63;;;4.45;;
22644;SDS011;11489;50.834;6.752;2023-04-15T14:38:35;7.22;;;4.63;;
22644;SDS011;11489;50.834;6.752;2023-04-15T14:41:03;5.20;;;4.18;;
22644;SDS011;11489;50.834;6.752;2023-04-15T14:43:29;6.10;;;4.45;;
22644;SDS011;11489;50.834;6.752;2023-04-15T14:45:54;7.25;;;4.70;;
22644;SDS011;11489;50.834;6.752;2023-04-15T14:48:20;4.90;;;3.88;;
22644;SDS011;11489;50.834;6.752;2023-04-15T14:50:46;5.53;;;3.75;;
22644;SDS011;11489;50.834;6.752;2023-04-15T14:53:11;5.53;;;4.15;;
22644;SDS011;11489;50.834;6.752;2023-04-15T14:55:37;5.25;;;3.20;;
22644;SDS011;11489;50.834;6.752;2023-04-15T14:58:03;4.03;;;3.00;;
22644;SDS011;11489;50.834;6.752;2023-04-15T15:00:29;4.68;;;3.42;;
22644;SDS011;11489;50.834;6.752;2023-04-15T15:02:54;4.75;;;3.10;;
22644;SDS011;11489;50.834;6.752;2023-04-15T15:05:20;5.07;;;3.35;;
22644;SDS011;11489;50.834;6.752;2023-04-15T15:07:46;7.47;;;3.13;;
22644;SDS011;11489;50.834;6.752;2023-04-15T15:10:12;5.72;;;2.97;;
22644;SDS011;11489;50.834;6.752;2023-04-15T15:12:37;5.10;;;3.58;;
22644;SDS011;11489;50.834;6.752;2023-04-15T15:15:03;7.70;;;3.50;;